createdAt,value
2022-10-08T00:01:23.479Z,8.20
2022-10-08T00:04:12.511Z,8.30
2022-10-08T00:07:00.711Z,8.30
2022-10-08T00:09:47.680Z,8.40
2022-10-08T00:12:34.705Z,8.40
2022-10-08T00:15:22.095Z,8.30
2022-10-08T00:18:09.305Z,8.40
2022-10-08T00:21:06.253Z,8.10
2022-10-08T00:23:55.481Z,8.10
2022-10-08T00:26:44.165Z,8.30
2022-10-08T00:29:32.382Z,8.30
2022-10-08T00:32:20.106Z,8.30
2022-10-08T00:35:07.385Z,8.30
2022-10-08T00:37:54.328Z,8.30
2022-10-08T00:40:46.291Z,8.40
2022-10-08T00:43:40.227Z,8.40
2022-10-08T00:46:30.089Z,8.40
2022-10-08T00:49:19.681Z,8.40
2022-10-08T00:52:06.978Z,8.50
2022-10-08T00:54:54.058Z,8.40
2022-10-08T00:57:43.650Z,8.60
2022-10-08T01:00:33.202Z,8.60
2022-10-08T01:03:20.286Z,8.80
2022-10-08T01:06:15.770Z,8.50
2022-10-08T01:09:09.681Z,8.60
2022-10-08T01:12:04.237Z,8.60
2022-10-08T01:14:59.516Z,8.70
2022-10-08T01:17:53.499Z,8.70
2022-10-08T01:20:53.050Z,8.80
2022-10-08T01:24:08.916Z,8.90
2022-10-08T01:27:02.263Z,8.90
2022-10-08T01:29:51.710Z,8.90
2022-10-08T01:32:44.546Z,8.90
2022-10-08T01:35:34.217Z,9.00
2022-10-08T01:38:23.299Z,9.10
2022-10-08T01:41:12.987Z,9.20
2022-10-08T01:44:05.258Z,9.30
2022-10-08T01:46:58.742Z,9.40
2022-10-08T01:49:50.666Z,9.40
2022-10-08T01:52:41.571Z,9.40
2022-10-08T01:55:35.157Z,9.50
2022-10-08T01:58:28.955Z,9.50
2022-10-08T02:01:23.495Z,9.60
2022-10-08T02:04:29.456Z,9.60
2022-10-08T02:07:18.448Z,9.60
2022-10-08T02:10:08.550Z,9.60
2022-10-08T02:12:55.467Z,9.60
2022-10-08T02:15:50.760Z,9.60
2022-10-08T02:18:42.888Z,9.60
2022-10-08T02:21:32.331Z,9.60
2022-10-08T02:24:22.635Z,9.60
2022-10-08T02:27:12.653Z,9.70
2022-10-08T02:30:06.478Z,9.70
2022-10-08T02:32:59.086Z,9.70
2022-10-08T02:35:51.945Z,9.70
2022-10-08T02:38:46.011Z,9.70
2022-10-08T02:41:38.190Z,9.70
2022-10-08T02:44:33.041Z,9.70
2022-10-08T02:47:25.991Z,9.70
2022-10-08T02:50:17.767Z,9.70
2022-10-08T02:53:05.140Z,9.80
2022-10-08T02:56:04.643Z,9.80
2022-10-08T02:58:52.306Z,9.80
2022-10-08T03:01:45.830Z,9.80
2022-10-08T03:04:36.673Z,9.80
2022-10-08T03:07:26.216Z,9.80
2022-10-08T03:10:13.810Z,9.80
2022-10-08T03:13:03.508Z,9.80
2022-10-08T03:15:53.778Z,9.70
2022-10-08T03:18:42.027Z,9.80
2022-10-08T03:21:29.408Z,9.80
2022-10-08T03:24:17.184Z,9.80
2022-10-08T03:27:03.962Z,9.70
2022-10-08T03:29:56.970Z,9.70
2022-10-08T03:32:44.269Z,9.70
2022-10-08T03:35:32.013Z,9.70
2022-10-08T03:38:21.877Z,9.70
2022-10-08T03:41:10.219Z,9.70
2022-10-08T03:43:57.630Z,9.60
2022-10-08T03:46:46.154Z,9.60
2022-10-08T03:49:32.903Z,9.60
2022-10-08T03:52:20.253Z,9.60
2022-10-08T03:55:08.277Z,9.60
2022-10-08T03:57:55.180Z,9.60
2022-10-08T04:00:42.954Z,9.50
2022-10-08T04:03:32.244Z,9.50
2022-10-08T04:06:19.906Z,9.50
2022-10-08T04:09:06.890Z,9.50
2022-10-08T04:11:54.126Z,9.50
2022-10-08T04:14:41.561Z,9.60
2022-10-08T04:17:28.778Z,9.60
2022-10-08T04:20:17.480Z,9.60
2022-10-08T04:23:04.522Z,9.60
2022-10-08T04:25:52.566Z,9.70
2022-10-08T04:28:41.765Z,9.70
2022-10-08T04:31:28.776Z,9.80
2022-10-08T04:34:15.962Z,9.80
2022-10-08T04:37:04.302Z,9.90
2022-10-08T04:39:51.513Z,9.80
2022-10-08T04:42:38.074Z,9.90
2022-10-08T04:45:25.325Z,9.90
2022-10-08T04:48:12.686Z,9.90
2022-10-08T04:51:01.911Z,9.90
2022-10-08T04:53:51.414Z,9.90
2022-10-08T04:56:38.797Z,10.00
2022-10-08T04:59:26.277Z,10.00
2022-10-08T05:02:13.382Z,10.00
2022-10-08T05:05:00.648Z,9.90
2022-10-08T05:07:47.811Z,9.90
2022-10-08T05:10:36.615Z,9.90
2022-10-08T05:13:23.543Z,9.80
2022-10-08T05:16:13.106Z,9.80
2022-10-08T05:19:00.551Z,9.70
2022-10-08T05:21:47.299Z,9.70
2022-10-08T05:24:34.687Z,9.70
2022-10-08T05:27:23.368Z,9.70
2022-10-08T05:30:11.883Z,9.70
2022-10-08T05:32:58.870Z,9.80
2022-10-08T05:35:45.986Z,9.80
2022-10-08T05:38:35.097Z,9.80
2022-10-08T05:41:24.278Z,9.80
2022-10-08T05:44:12.856Z,9.80
2022-10-08T05:46:59.979Z,9.80
2022-10-08T05:49:47.255Z,9.80
2022-10-08T05:52:34.278Z,9.80
2022-10-08T05:55:21.474Z,9.80
2022-10-08T05:58:08.413Z,9.80
2022-10-08T06:01:01.342Z,9.80
2022-10-08T06:03:51.009Z,9.80
2022-10-08T06:06:39.017Z,9.80
2022-10-08T06:09:25.979Z,9.80
2022-10-08T06:12:14.024Z,9.80
2022-10-08T06:15:00.805Z,9.80
2022-10-08T06:17:51.556Z,9.80
2022-10-08T06:20:38.669Z,9.80
2022-10-08T06:23:25.900Z,9.80
2022-10-08T06:26:13.248Z,9.80
2022-10-08T06:29:00.619Z,9.90
2022-10-08T06:31:47.779Z,9.90
2022-10-08T06:34:36.271Z,10.00
2022-10-08T06:37:23.089Z,10.00
2022-10-08T06:40:10.690Z,10.10
2022-10-08T06:42:57.786Z,10.10
2022-10-08T06:45:46.946Z,10.10
2022-10-08T06:48:34.619Z,10.20
2022-10-08T06:51:23.383Z,10.20
2022-10-08T06:54:10.609Z,10.20
2022-10-08T06:56:57.516Z,10.30
2022-10-08T06:59:44.553Z,10.30
2022-10-08T07:02:32.529Z,10.30
2022-10-08T07:05:19.571Z,10.30
2022-10-08T07:08:07.654Z,10.50
2022-10-08T07:10:55.218Z,10.70
2022-10-08T07:13:42.837Z,10.90
2022-10-08T07:16:30.563Z,11.00
2022-10-08T07:19:17.854Z,10.90
2022-10-08T07:22:05.135Z,11.00
2022-10-08T07:24:53.307Z,11.00
2022-10-08T07:27:44.729Z,10.90
2022-10-08T07:30:32.971Z,10.90
2022-10-08T07:33:20.413Z,11.50
2022-10-08T07:36:09.111Z,11.80
2022-10-08T07:38:56.984Z,12.40
2022-10-08T07:41:46.084Z,12.80
2022-10-08T07:44:33.164Z,13.30
2022-10-08T07:47:20.351Z,13.60
2022-10-08T07:50:08.031Z,14.20
2022-10-08T07:52:55.301Z,14.30
2022-10-08T07:55:42.672Z,14.50
2022-10-08T07:58:31.027Z,14.50
2022-10-08T08:01:20.688Z,14.30
2022-10-08T08:04:09.420Z,14.20
2022-10-08T08:06:56.537Z,14.30
2022-10-08T08:09:43.496Z,14.40
2022-10-08T08:12:30.525Z,14.20
2022-10-08T08:15:19.054Z,14.50
2022-10-08T08:18:06.559Z,15.00
2022-10-08T08:20:59.845Z,15.30
2022-10-08T08:23:48.519Z,15.60
2022-10-08T08:26:37.902Z,16.20
2022-10-08T08:29:25.116Z,16.40
2022-10-08T08:32:15.331Z,16.30
2022-10-08T08:35:02.535Z,16.10
2022-10-08T08:37:49.967Z,16.20
2022-10-08T08:40:37.185Z,16.50
2022-10-08T08:43:25.960Z,16.70
2022-10-08T08:46:18.823Z,16.80
2022-10-08T08:49:16.025Z,17.00
2022-10-08T08:52:05.464Z,17.10
2022-10-08T08:54:54.652Z,17.30
2022-10-08T08:57:49.925Z,17.30
2022-10-08T09:00:41.502Z,17.30
2022-10-08T09:03:34.783Z,17.40
2022-10-08T09:06:25.849Z,16.90
2022-10-08T09:09:23.426Z,17.20
2022-10-08T09:12:20.831Z,17.70
2022-10-08T09:15:18.784Z,18.10
2022-10-08T09:18:06.398Z,17.70
2022-10-08T09:20:53.822Z,17.80
2022-10-08T09:23:42.788Z,17.50
2022-10-08T09:26:33.062Z,17.80
2022-10-08T09:29:34.116Z,17.70
2022-10-08T09:32:22.937Z,17.40
2022-10-08T09:35:10.511Z,17.10
2022-10-08T09:37:59.884Z,17.40
2022-10-08T09:41:06.917Z,17.40
2022-10-08T09:44:18.658Z,17.00
2022-10-08T09:47:07.273Z,16.90
2022-10-08T09:50:04.823Z,17.10
2022-10-08T09:53:01.545Z,17.40
2022-10-08T09:55:53.174Z,17.10
2022-10-08T09:58:57.381Z,17.20
2022-10-08T10:01:46.280Z,17.00
2022-10-08T10:04:36.361Z,17.30
2022-10-08T10:07:24.051Z,17.20
2022-10-08T10:10:18.338Z,17.00
2022-10-08T10:13:11.746Z,17.10
2022-10-08T10:16:05.265Z,17.00
2022-10-08T10:18:57.539Z,16.70
2022-10-08T10:21:52.614Z,16.80
2022-10-08T10:24:50.447Z,16.50
2022-10-08T10:27:43.286Z,16.50
2022-10-08T10:30:35.608Z,16.30
2022-10-08T10:33:27.763Z,16.20
2022-10-08T10:36:18.263Z,16.30
2022-10-08T10:39:13.555Z,16.20
2022-10-08T10:42:11.611Z,16.20
2022-10-08T10:45:04.339Z,16.10
2022-10-08T10:47:52.197Z,15.80
2022-10-08T10:50:44.949Z,15.80
2022-10-08T10:53:44.035Z,15.90
2022-10-08T10:56:37.589Z,15.60
2022-10-08T10:59:34.609Z,15.50
2022-10-08T11:02:28.048Z,15.60
2022-10-08T11:05:20.907Z,15.60
2022-10-08T11:08:30.155Z,15.50
2022-10-08T11:11:24.151Z,15.60
2022-10-08T11:14:26.962Z,15.60
2022-10-08T11:17:29.960Z,15.70
2022-10-08T11:20:37.869Z,15.70
2022-10-08T11:23:53.794Z,15.70
2022-10-08T11:26:46.851Z,15.70
2022-10-08T11:29:39.790Z,15.60
2022-10-08T11:32:29.757Z,15.50
2022-10-08T11:35:28.966Z,15.60
2022-10-08T11:38:22.057Z,15.60
2022-10-08T11:41:17.427Z,15.20
2022-10-08T11:44:05.238Z,15.10
2022-10-08T11:46:52.498Z,14.90
2022-10-08T11:49:53.937Z,14.80
2022-10-08T11:52:41.123Z,14.70
2022-10-08T11:55:31.280Z,14.50
2022-10-08T11:58:24.505Z,14.70
2022-10-08T12:01:11.701Z,14.60
2022-10-08T12:04:04.988Z,14.50
2022-10-08T12:07:08.720Z,14.50
2022-10-08T12:10:29.479Z,14.60
2022-10-08T12:13:31.182Z,14.50
2022-10-08T12:16:18.296Z,14.80
2022-10-08T12:19:30.345Z,14.80
2022-10-08T12:22:50.398Z,14.90
2022-10-08T12:25:40.959Z,15.10
2022-10-08T12:28:50.379Z,15.10
2022-10-08T12:31:39.963Z,15.00
2022-10-08T12:34:27.370Z,14.90
2022-10-08T12:37:32.567Z,15.00
2022-10-08T12:40:27.886Z,15.00
2022-10-08T12:43:25.870Z,15.10
2022-10-08T12:46:25.744Z,15.10
2022-10-08T12:49:20.434Z,15.20
2022-10-08T12:52:10.351Z,15.30
2022-10-08T12:54:59.389Z,15.40
2022-10-08T12:57:49.633Z,15.50
2022-10-08T13:00:37.141Z,15.60
2022-10-08T13:03:25.632Z,15.70
2022-10-08T13:06:17.918Z,15.60
2022-10-08T13:09:21.053Z,15.60
2022-10-08T13:12:10.587Z,15.40
2022-10-08T13:15:05.108Z,15.30
2022-10-08T13:17:52.072Z,15.40
2022-10-08T13:20:40.655Z,15.40
2022-10-08T13:23:34.806Z,15.40
2022-10-08T13:26:42.232Z,15.40
2022-10-08T13:29:32.906Z,15.50
2022-10-08T13:32:22.895Z,15.40
2022-10-08T13:35:23.831Z,15.40
2022-10-08T13:38:22.126Z,15.30
2022-10-08T13:41:10.530Z,15.40
2022-10-08T13:43:57.714Z,15.30
2022-10-08T13:46:45.129Z,15.50
2022-10-08T13:49:34.329Z,15.50
2022-10-08T13:52:24.062Z,15.50
2022-10-08T13:55:23.043Z,15.60
2022-10-08T13:58:14.358Z,15.60
2022-10-08T14:01:01.328Z,15.60
2022-10-08T14:03:48.474Z,15.70
2022-10-08T14:06:36.183Z,15.70
2022-10-08T14:09:26.287Z,15.70
2022-10-08T14:12:15.013Z,15.70
2022-10-08T14:15:02.606Z,15.50
2022-10-08T14:17:50.686Z,15.50
2022-10-08T14:20:38.199Z,15.50
2022-10-08T14:23:25.454Z,15.50
2022-10-08T14:26:13.448Z,15.40
2022-10-08T14:29:01.821Z,15.50
2022-10-08T14:31:49.030Z,15.40
2022-10-08T14:34:36.715Z,15.40
2022-10-08T14:37:23.949Z,15.30
2022-10-08T14:40:15.973Z,15.30
2022-10-08T14:43:03.383Z,15.20
2022-10-08T14:45:51.763Z,15.20
2022-10-08T14:48:39.363Z,15.20
2022-10-08T14:51:26.513Z,15.00
2022-10-08T14:54:13.896Z,14.60
2022-10-08T14:57:04.151Z,14.00
2022-10-08T14:59:51.300Z,14.00
2022-10-08T15:02:39.822Z,13.90
2022-10-08T15:05:26.823Z,13.90
2022-10-08T15:08:14.054Z,13.90
2022-10-08T15:11:03.274Z,13.90
2022-10-08T15:13:50.621Z,13.90
2022-10-08T15:16:39.502Z,14.00
2022-10-08T15:19:28.389Z,14.10
2022-10-08T15:22:15.067Z,14.10
2022-10-08T15:25:02.294Z,14.00
2022-10-08T15:27:49.441Z,14.00
2022-10-08T15:30:36.749Z,14.00
2022-10-08T15:33:23.899Z,14.00
2022-10-08T15:36:20.008Z,14.00
2022-10-08T15:39:11.787Z,13.90
2022-10-08T15:41:59.038Z,13.80
2022-10-08T15:44:46.592Z,13.70
2022-10-08T15:47:33.702Z,13.60
2022-10-08T15:50:20.560Z,13.50
2022-10-08T15:53:09.224Z,13.30
2022-10-08T15:55:56.719Z,13.30
2022-10-08T15:58:52.024Z,13.20
2022-10-08T16:01:39.479Z,13.20
2022-10-08T16:04:26.807Z,13.10
2022-10-08T16:07:14.091Z,13.00
2022-10-08T16:10:02.617Z,13.00
2022-10-08T16:12:49.897Z,12.90
2022-10-08T16:15:40.172Z,12.70
2022-10-08T16:18:27.405Z,12.70
2022-10-08T16:21:15.206Z,12.60
2022-10-08T16:24:03.244Z,12.60
2022-10-08T16:26:51.432Z,12.70
2022-10-08T16:29:38.372Z,12.60
2022-10-08T16:32:25.291Z,12.60
2022-10-08T16:35:12.338Z,12.70
2022-10-08T16:37:59.505Z,12.60
2022-10-08T16:40:46.826Z,12.70
2022-10-08T16:43:35.278Z,12.60
2022-10-08T16:46:24.533Z,12.50
2022-10-08T16:49:19.835Z,12.50
2022-10-08T16:52:11.394Z,12.50
2022-10-08T16:54:58.505Z,12.50
2022-10-08T16:57:51.306Z,12.50
2022-10-08T17:00:39.966Z,12.50
2022-10-08T17:03:27.216Z,12.40
2022-10-08T17:06:14.452Z,12.40
2022-10-08T17:09:01.686Z,12.30
2022-10-08T17:11:49.683Z,12.30
2022-10-08T17:14:37.849Z,12.30
2022-10-08T17:17:26.212Z,12.20
2022-10-08T17:20:13.394Z,12.20
2022-10-08T17:23:00.282Z,12.20
2022-10-08T17:25:47.475Z,12.10
2022-10-08T17:28:36.325Z,12.00
2022-10-08T17:31:25.423Z,12.10
2022-10-08T17:34:14.031Z,11.90
2022-10-08T17:37:02.045Z,12.00
2022-10-08T17:39:49.363Z,11.90
2022-10-08T17:42:36.659Z,11.90
2022-10-08T17:45:23.639Z,11.80
2022-10-08T17:48:10.508Z,11.70
2022-10-08T17:51:02.023Z,11.80
2022-10-08T17:53:53.938Z,11.60
2022-10-08T17:56:41.263Z,11.60
2022-10-08T17:59:28.397Z,11.60
2022-10-08T18:02:15.699Z,11.50
2022-10-08T18:05:03.282Z,11.50
2022-10-08T18:07:51.582Z,11.60
2022-10-08T18:10:38.818Z,11.50
2022-10-08T18:13:26.520Z,11.40
2022-10-08T18:16:15.615Z,11.40
2022-10-08T18:19:08.361Z,11.40
2022-10-08T18:21:55.688Z,11.40
2022-10-08T18:24:44.111Z,11.30
2022-10-08T18:27:31.063Z,11.30
2022-10-08T18:30:18.267Z,11.20
2022-10-08T18:33:06.166Z,11.20
2022-10-08T18:35:53.203Z,11.20
2022-10-08T18:38:40.949Z,11.10
2022-10-08T18:41:31.503Z,11.00
2022-10-08T18:44:20.852Z,11.00
2022-10-08T18:47:07.780Z,11.10
2022-10-08T18:49:54.857Z,11.00
2022-10-08T18:52:41.852Z,11.00
2022-10-08T18:55:29.003Z,11.00
2022-10-08T18:58:17.339Z,11.00
2022-10-08T19:01:05.727Z,11.00
2022-10-08T19:03:54.657Z,11.00
2022-10-08T19:06:42.940Z,11.00
2022-10-08T19:09:30.105Z,10.90
2022-10-08T19:12:17.364Z,11.00
2022-10-08T19:15:06.166Z,11.00
2022-10-08T19:17:53.130Z,10.90
2022-10-08T19:20:40.562Z,10.90
2022-10-08T19:23:27.830Z,10.80
2022-10-08T19:26:15.005Z,10.80
2022-10-08T19:29:02.211Z,10.80
2022-10-08T19:31:51.352Z,10.70
2022-10-08T19:34:38.700Z,10.70
2022-10-08T19:37:25.691Z,10.70
2022-10-08T19:40:12.876Z,10.70
2022-10-08T19:42:59.860Z,10.70
2022-10-08T19:45:47.110Z,10.70
2022-10-08T19:48:35.703Z,10.60
2022-10-08T19:51:24.064Z,10.60
2022-10-08T19:54:12.119Z,10.60
2022-10-08T19:56:59.376Z,10.60
2022-10-08T19:59:46.384Z,10.60
2022-10-08T20:02:33.829Z,10.50
2022-10-08T20:05:22.423Z,10.50
2022-10-08T20:08:09.633Z,10.50
2022-10-08T20:10:57.473Z,10.50
2022-10-08T20:13:46.833Z,10.50
2022-10-08T20:16:36.230Z,10.40
2022-10-08T20:19:23.528Z,10.40
2022-10-08T20:22:12.162Z,10.30
2022-10-08T20:24:59.107Z,10.30
2022-10-08T20:27:46.154Z,10.30
2022-10-08T20:30:33.270Z,10.30
2022-10-08T20:33:20.693Z,10.30
2022-10-08T20:36:08.439Z,10.40
2022-10-08T20:38:57.718Z,10.40
2022-10-08T20:41:45.187Z,10.40
2022-10-08T20:44:32.186Z,10.30
2022-10-08T20:47:19.543Z,10.40
2022-10-08T20:50:07.245Z,10.30
2022-10-08T20:52:54.128Z,10.40
2022-10-08T20:55:42.694Z,10.30
2022-10-08T20:58:31.233Z,10.30
2022-10-08T21:01:20.389Z,10.30
2022-10-08T21:04:08.212Z,10.20
2022-10-08T21:06:55.202Z,10.20
2022-10-08T21:09:42.301Z,10.20
2022-10-08T21:12:31.083Z,10.20
2022-10-08T21:15:18.327Z,10.20
2022-10-08T21:18:05.814Z,10.20
2022-10-08T21:20:53.648Z,10.20
2022-10-08T21:23:41.239Z,10.20
2022-10-08T21:26:30.008Z,10.10
2022-10-08T21:29:18.656Z,10.10
2022-10-08T21:32:06.119Z,10.10
2022-10-08T21:34:53.033Z,10.00
2022-10-08T21:37:40.291Z,10.00
2022-10-08T21:40:27.675Z,10.00
2022-10-08T21:43:14.738Z,9.90
2022-10-08T21:46:03.159Z,9.90
2022-10-08T21:48:54.647Z,9.80
2022-10-08T21:51:41.874Z,9.80
2022-10-08T21:54:28.834Z,9.80
2022-10-08T21:57:16.547Z,9.70
2022-10-08T22:00:31.437Z,9.70
2022-10-08T22:03:20.225Z,9.70
2022-10-08T22:06:07.511Z,9.70
2022-10-08T22:08:55.353Z,9.60
2022-10-08T22:11:42.826Z,9.60
2022-10-08T22:14:30.520Z,9.60
2022-10-08T22:17:17.573Z,9.70
2022-10-08T22:20:07.096Z,9.60
2022-10-08T22:22:54.383Z,9.60
2022-10-08T22:25:41.750Z,9.60
2022-10-08T22:28:29.705Z,9.60
2022-10-08T22:31:18.508Z,9.60
2022-10-08T22:34:06.412Z,9.60
2022-10-08T22:36:54.987Z,9.50
2022-10-08T22:39:42.180Z,9.50
2022-10-08T22:42:29.292Z,9.50
2022-10-08T22:45:16.603Z,9.50
2022-10-08T22:48:03.986Z,9.50
2022-10-08T22:50:51.262Z,9.50
2022-10-08T22:53:40.531Z,9.50
2022-10-08T22:56:30.101Z,9.50
2022-10-08T22:59:17.057Z,9.50
2022-10-08T23:02:04.338Z,9.50
2022-10-08T23:04:51.301Z,9.50
2022-10-08T23:07:38.682Z,9.40
2022-10-08T23:10:27.275Z,9.40
2022-10-08T23:13:14.288Z,9.40
2022-10-08T23:16:03.059Z,9.40
2022-10-08T23:18:54.654Z,9.40
2022-10-08T23:21:44.337Z,9.40
2022-10-08T23:24:31.533Z,9.30
2022-10-08T23:27:20.147Z,9.30
2022-10-08T23:30:25.535Z,9.30
2022-10-08T23:33:15.499Z,9.30
2022-10-08T23:36:02.500Z,9.30
2022-10-08T23:38:50.123Z,9.30
2022-10-08T23:41:37.914Z,9.20
2022-10-08T23:44:26.184Z,9.20
2022-10-08T23:47:13.337Z,9.20
2022-10-08T23:50:00.479Z,9.20
2022-10-08T23:52:47.925Z,9.10
2022-10-08T23:55:35.055Z,9.10
2022-10-08T23:58:22.058Z,9.00
